Time;durP1;ratioP1;P1;durP2;ratioP2;P2;SDS_P1;SDS_P2;PMS_P1;PMS_P2;Temp;Humidity;BMP_temperature;BMP_pressure;BME280_temperature;BME280_humidity;BME280_pressure;Samples;Min_cycle;Max_cycle;Signal;HPM_P1;HPM_P2
2023/07/14 00:01:54;;;;;;;3.90;3.30;;;;;;;19.91;100.00;99029.85;108283;1256;71109;-73
2023/07/14 00:04:33;;;;;;;4.20;3.70;;;;;;;19.97;100.00;99031.83;108281;1252;60410;-74
2023/07/14 00:07:03;;;;;;;4.80;3.80;;;;;;;20.04;100.00;99027.89;108331;1255;60271;-73
2023/07/14 00:09:32;;;;;;;5.00;3.90;;;;;;;20.08;100.00;99025.09;108801;1252;73947;-73
2023/07/14 00:12:00;;;;;;;5.30;4.50;;;;;;;20.12;100.00;99022.83;108917;1253;68874;-74
2023/07/14 00:14:27;;;;;;;6.50;3.70;;;;;;;20.13;100.00;99020.95;108344;1253;71836;-75
2023/07/14 00:16:55;;;;;;;23.20;20.80;;;;;;;20.18;100.00;99016.77;106611;1253;61680;-73
2023/07/14 00:19:22;;;;;;;6.00;5.00;;;;;;;20.21;100.00;99012.39;106393;1254;60617;-75
2023/07/14 00:21:52;;;;;;;8.60;5.60;;;;;;;20.16;100.00;99008.16;107155;1254;72557;-75
2023/07/14 00:24:20;;;;;;;8.10;7.30;;;;;;;20.11;100.00;99008.73;107964;1253;69519;-77
2023/07/14 00:26:57;;;;;;;7.00;6.10;;;;;;;20.11;100.00;99001.94;105955;1253;72712;-77
2023/07/14 00:29:34;;;;;;;5.70;5.10;;;;;;;20.14;100.00;98998.58;105934;1256;61221;-73
2023/07/14 00:32:10;;;;;;;6.80;5.30;;;;;;;20.11;100.00;98993.84;105806;1258;60435;-75
2023/07/14 00:34:38;;;;;;;6.00;5.40;;;;;;;20.14;100.00;98985.69;107770;1253;72663;-73
2023/07/14 00:37:06;;;;;;;5.40;4.90;;;;;;;20.24;100.00;98984.26;108210;1253;69023;-71
2023/07/14 00:39:33;;;;;;;6.70;6.00;;;;;;;20.34;100.00;98987.95;107000;1258;71400;-72
2023/07/14 00:42:01;;;;;;;6.20;5.30;;;;;;;20.40;100.00;98987.65;107115;1253;60978;-72
2023/07/14 00:44:28;;;;;;;8.40;5.70;;;;;;;20.41;100.00;98984.47;105990;1257;60343;-75
2023/07/14 00:46:56;;;;;;;5.60;5.10;;;;;;;20.48;100.00;98982.30;105868;1253;71964;-72
2023/07/14 00:49:35;;;;;;;8.30;5.90;;;;;;;20.51;100.00;98979.14;106497;1255;70363;-74
2023/07/14 00:52:05;;;;;;;6.50;5.90;;;;;;;20.55;100.00;98971.36;107468;1253;72670;-75
2023/07/14 00:54:34;;;;;;;7.30;5.70;;;;;;;20.64;100.00;98970.69;106956;1253;60400;-75
2023/07/14 00:57:01;;;;;;;6.10;5.60;;;;;;;20.72;100.00;98965.71;105976;1257;60597;-79
2023/07/14 00:59:32;;;;;;;6.10;5.20;;;;;;;20.78;100.00;98966.09;105940;1257;73880;-79
2023/07/14 01:02:15;;;;;;;7.00;5.40;;;;;;;20.83;100.00;98967.88;106041;1253;70381;-78
2023/07/14 01:05:03;;;;;;;8.00;5.60;;;;;;;20.86;100.00;98972.60;106111;1257;72718;-78
2023/07/14 01:07:36;;;;;;;7.10;5.80;;;;;;;20.83;100.00;98972.75;105931;1253;60539;-79
2023/07/14 01:10:04;;;;;;;7.80;5.90;;;;;;;20.77;100.00;98971.04;105888;1253;60348;-78
2023/07/14 01:12:33;;;;;;;6.10;5.60;;;;;;;20.77;100.00;98968.84;106181;1253;72601;-78
2023/07/14 01:15:01;;;;;;;6.80;6.10;;;;;;;20.77;100.00;98968.52;106384;1257;69243;-77
2023/07/14 01:17:29;;;;;;;6.10;5.50;;;;;;;20.72;100.00;98967.71;106006;1258;72438;-76
2023/07/14 01:20:00;;;;;;;6.10;5.50;;;;;;;20.67;100.00;98965.33;106073;1253;61907;-79
2023/07/14 01:23:13;;;;;;;6.10;5.50;;;;;;;20.71;100.00;98962.88;107502;1252;60387;-77
2023/07/14 01:26:02;;;;;;;8.50;5.90;;;;;;;20.74;100.00;98961.69;105939;1258;73915;-75
2023/07/14 01:28:29;;;;;;;6.20;5.20;;;;;;;20.81;100.00;98957.00;105929;1253;70304;-78
2023/07/14 01:30:56;;;;;;;6.60;6.00;;;;;;;20.90;100.00;98957.41;105908;1257;72721;-77
2023/07/14 01:33:24;;;;;;;6.70;6.00;;;;;;;20.95;100.00;98960.70;105780;1253;60733;-77
2023/07/14 01:35:56;;;;;;;6.00;5.40;;;;;;;20.92;100.00;98970.98;105817;1258;60523;-76
2023/07/14 01:38:23;;;;;;;8.40;6.10;;;;;;;20.85;100.00;98971.35;105855;1258;73992;-76
2023/07/14 01:40:52;;;;;;;8.00;5.60;;;;;;;20.80;100.00;98974.54;105863;1258;69143;-76
2023/07/14 01:43:21;;;;;;;7.00;6.00;;;;;;;20.81;100.00;98981.94;106097;1253;72768;-77
2023/07/14 01:45:57;;;;;;;7.40;6.00;;;;;;;20.88;100.00;98984.51;106237;1253;61787;-75
2023/07/14 01:48:30;;;;;;;8.00;6.60;;;;;;;20.96;100.00;98990.25;106121;1253;61266;-74
2023/07/14 01:50:59;;;;;;;8.20;6.80;;;;;;;20.99;100.00;98993.27;106414;1253;73963;-75
2023/07/14 01:53:35;;;;;;;8.70;6.20;;;;;;;21.04;100.00;98988.61;108425;1253;69783;-76
2023/07/14 01:56:04;;;;;;;8.60;6.80;;;;;;;21.10;100.00;98986.06;106897;1253;71070;-75
2023/07/14 01:58:35;;;;;;;8.20;6.70;;;;;;;21.04;100.00;98987.09;105637;1260;60770;-76
2023/07/14 02:01:02;;;;;;;8.40;6.60;;;;;;;20.88;100.00;98983.80;105745;1253;60612;-74
2023/07/14 02:03:36;;;;;;;7.80;7.10;;;;;;;20.80;100.00;98982.05;105674;1253;73918;-76
2023/07/14 02:06:04;;;;;;;7.20;6.60;;;;;;;20.74;100.00;98973.88;106356;1253;69977;-83
2023/07/14 02:08:32;;;;;;;7.90;7.10;;;;;;;20.75;100.00;98973.02;106382;1257;73714;-81
2023/07/14 02:11:00;;;;;;;8.30;7.60;;;;;;;20.82;100.00;98972.29;106238;1255;62692;-80
2023/07/14 02:13:27;;;;;;;9.90;8.00;;;;;;;20.84;100.00;98976.05;106340;1252;60588;-81
2023/07/14 02:15:55;;;;;;;8.90;7.80;;;;;;;20.81;100.00;98981.35;106171;1253;367128;-81
2023/07/14 02:20:28;;;;;;;9.50;8.60;;;;;;;20.89;100.00;98982.58;105260;1293;599667;-82
2023/07/14 02:22:56;;;;;;;9.00;8.00;;;;;;;20.93;100.00;98986.23;107391;1266;60394;-82
2023/07/14 02:25:25;;;;;;;8.80;7.90;;;;;;;20.96;100.00;98992.52;108204;1267;58978;-81
2023/07/14 02:27:53;;;;;;;9.40;8.50;;;;;;;21.04;100.00;98991.52;106313;1266;70798;-81
2023/07/14 02:30:22;;;;;;;9.40;8.60;;;;;;;21.08;100.00;98992.73;105482;1273;70551;-80
2023/07/14 02:32:53;;;;;;;9.10;8.20;;;;;;;21.09;100.00;98998.58;105970;1268;195579;-81
2023/07/14 02:35:29;;;;;;;8.70;7.80;;;;;;;21.09;100.00;99006.30;106231;1264;61783;-82
2023/07/14 02:38:03;;;;;;;9.30;8.30;;;;;;;21.03;100.00;99009.39;105632;1267;59553;-80
2023/07/14 02:40:39;;;;;;;9.70;8.70;;;;;;;20.94;100.00;99010.54;105456;1264;70671;-82
2023/07/14 02:43:08;;;;;;;10.00;8.70;;;;;;;20.87;100.00;99006.42;105575;1263;70124;-82
2023/07/14 02:45:39;;;;;;;8.90;8.10;;;;;;;20.89;100.00;99002.87;105500;1267;70739;-82
2023/07/14 02:48:08;;;;;;;9.90;9.00;;;;;;;20.92;100.00;99001.17;105981;1257;60423;-81
2023/07/14 02:50:36;;;;;;;11.10;9.00;;;;;;;20.93;100.00;99004.74;106212;1257;60206;-83
2023/07/14 02:53:04;;;;;;;10.00;9.10;;;;;;;20.94;100.00;99006.54;107540;1257;72027;-83
2023/07/14 02:55:31;;;;;;;9.60;8.80;;;;;;;20.94;100.00;99005.58;108777;1256;68752;-81
2023/07/14 02:57:58;;;;;;;10.70;8.90;;;;;;;20.92;100.00;99004.41;105941;1256;72879;-82
2023/07/14 03:00:26;;;;;;;9.30;8.50;;;;;;;20.92;100.00;99001.83;106383;1257;61730;-84
2023/07/14 03:02:53;;;;;;;10.10;9.20;;;;;;;20.98;100.00;99007.87;105989;1257;59887;-83
2023/07/14 03:05:21;;;;;;;9.80;8.90;;;;;;;21.04;100.00;99009.83;105848;1256;73141;-83
2023/07/14 03:07:48;;;;;;;8.90;8.00;;;;;;;21.07;100.00;99008.45;106185;1257;69384;-83
2023/07/14 03:10:16;;;;;;;10.80;8.40;;;;;;;21.06;100.00;99008.39;107828;1258;73249;-85
2023/07/14 03:12:44;;;;;;;9.80;8.90;;;;;;;21.08;100.00;99008.25;107927;1261;60525;-85
2023/07/14 03:15:15;;;;;;;10.50;9.30;;;;;;;21.11;100.00;99012.98;108341;1256;59419;-85
2023/07/14 03:17:43;;;;;;;9.80;9.00;;;;;;;21.12;100.00;99016.45;108399;1256;72943;-84
2023/07/14 03:20:11;;;;;;;9.50;8.50;;;;;;;21.10;100.00;99015.98;106994;1257;68827;-85
2023/07/14 03:22:38;;;;;;;10.10;9.10;;;;;;;21.06;100.00;99018.33;108759;1257;72684;-83
2023/07/14 03:25:09;;;;;;;12.50;9.20;;;;;;;21.03;100.00;99020.94;109022;1256;60413;-83
2023/07/14 03:27:37;;;;;;;10.50;9.50;;;;;;;20.99;100.00;99022.90;108517;1258;58775;-82
2023/07/14 03:30:05;;;;;;;10.60;9.50;;;;;;;20.95;100.00;99020.20;107915;1257;71871;-81
2023/07/14 03:32:33;;;;;;;9.80;8.70;;;;;;;20.98;100.00;99019.60;106140;1261;68713;-83
2023/07/14 03:35:01;;;;;;;10.30;9.30;;;;;;;20.97;100.00;99017.33;105607;1260;72175;-80
2023/07/14 03:37:28;;;;;;;13.60;12.20;;;;;;;20.94;100.00;99020.14;106043;1263;61343;-81
2023/07/14 03:39:56;;;;;;;10.40;9.50;;;;;;;20.90;100.00;99027.98;106132;1256;62012;-86
2023/07/14 03:42:23;;;;;;;10.90;9.50;;;;;;;20.87;100.00;99036.91;106055;1257;74433;-86
2023/07/14 03:44:51;;;;;;;9.80;8.90;;;;;;;20.83;100.00;99040.60;106849;1257;69320;-85
2023/07/14 03:47:18;;;;;;;10.90;9.70;;;;;;;20.85;100.00;99042.73;106274;1257;71515;-85
2023/07/14 03:49:46;;;;;;;10.80;9.70;;;;;;;20.90;100.00;99041.52;105988;1258;60438;-84
2023/07/14 03:52:14;;;;;;;9.70;8.80;;;;;;;20.93;100.00;99044.00;105906;1257;59641;-81
2023/07/14 03:54:42;;;;;;;12.00;9.90;;;;;;;20.96;100.00;99045.77;108719;1256;71830;-81
2023/07/14 03:57:09;;;;;;;12.40;10.00;;;;;;;21.00;100.00;99047.05;107256;1256;69075;-82
2023/07/14 03:59:36;;;;;;;10.30;9.30;;;;;;;20.99;100.00;99044.19;105915;1258;71313;-83
2023/07/14 04:02:04;;;;;;;11.10;9.90;;;;;;;20.94;100.00;99050.34;106161;1258;61689;-80
2023/07/14 04:04:31;;;;;;;10.90;9.70;;;;;;;20.92;100.00;99047.27;106200;1257;60219;-80
2023/07/14 04:07:01;;;;;;;12.30;10.20;;;;;;;20.88;100.00;99044.44;106138;1258;73035;-80
2023/07/14 04:09:29;;;;;;;10.50;9.60;;;;;;;20.85;100.00;99046.88;106311;1257;70187;-80
2023/07/14 04:11:57;;;;;;;10.60;9.60;;;;;;;20.84;100.00;99057.02;106227;1257;72213;-86
2023/07/14 04:14:25;;;;;;;11.80;10.70;;;;;;;20.81;100.00;99053.20;106591;1258;60647;-80
2023/07/14 04:16:52;;;;;;;11.30;8.90;;;;;;;20.72;100.00;99056.45;106505;1258;60230;-85
2023/07/14 04:19:20;;;;;;;11.10;9.20;;;;;;;20.72;100.00;99057.02;107346;1257;71803;-84
2023/07/14 04:21:47;;;;;;;12.20;10.40;;;;;;;20.71;100.00;99054.00;107308;1257;68693;-85
2023/07/14 04:24:15;;;;;;;11.10;10.00;;;;;;;20.71;100.00;99058.53;108334;1259;71091;-85
2023/07/14 04:26:42;;;;;;;12.60;9.70;;;;;;;20.74;100.00;99060.20;108505;1257;60727;-83
2023/07/14 04:29:11;;;;;;;12.00;10.10;;;;;;;20.74;100.00;99063.16;106921;1259;60282;-83
2023/07/14 04:31:39;;;;;;;10.80;9.80;;;;;;;20.75;100.00;99065.81;106700;1263;72769;-79
2023/07/14 04:34:06;;;;;;;10.60;9.40;;;;;;;20.75;100.00;99069.21;107786;1256;69941;-83
2023/07/14 04:36:34;;;;;;;12.30;9.70;;;;;;;20.76;100.00;99069.02;107812;1259;70866;-82
2023/07/14 04:39:06;;;;;;;10.70;9.80;;;;;;;20.78;100.00;99070.02;107381;1255;60401;-82
2023/07/14 04:41:34;;;;;;;12.70;10.40;;;;;;;20.82;100.00;99076.42;106749;1253;60004;-83
2023/07/14 04:44:08;;;;;;;11.10;9.80;;;;;;;20.82;100.00;99080.42;107543;1253;72062;-84
2023/07/14 04:46:37;;;;;;;10.40;9.30;;;;;;;20.78;100.00;99085.28;107021;1254;69952;-83
2023/07/14 04:49:07;;;;;;;11.80;10.70;;;;;;;20.79;100.00;99094.90;108221;1254;70096;-81
2023/07/14 04:51:35;;;;;;;14.30;10.10;;;;;;;20.83;100.00;99102.58;108761;1252;59405;-82
2023/07/14 04:54:03;;;;;;;12.10;10.90;;;;;;;20.84;100.00;99111.16;109427;1253;57780;-83
2023/07/14 04:56:33;;;;;;;14.90;10.50;;;;;;;20.82;100.00;99114.23;107469;1254;71794;-80
2023/07/14 04:59:01;;;;;;;10.80;9.70;;;;;;;20.79;100.00;99117.32;106439;1254;69301;-81
2023/07/14 05:01:30;;;;;;;10.80;9.70;;;;;;;20.73;100.00;99115.95;106349;1253;72498;-83
2023/07/14 05:03:58;;;;;;;9.90;8.80;;;;;;;20.66;100.00;99122.42;106345;1255;59753;-79
2023/07/14 05:06:25;;;;;;;10.70;9.70;;;;;;;20.56;100.00;99123.99;106361;1254;59585;-84
2023/07/14 05:08:53;;;;;;;11.40;10.10;;;;;;;20.52;100.00;99122.96;106534;1254;73275;-84
2023/07/14 05:11:21;;;;;;;13.40;10.20;;;;;;;20.52;100.00;99123.19;106697;1259;68704;-86
2023/07/14 05:13:50;;;;;;;11.00;9.90;;;;;;;20.54;100.00;99127.27;106294;1253;72938;-85
2023/07/14 05:16:19;;;;;;;11.00;9.90;;;;;;;20.56;100.00;99125.67;106367;1254;60883;-84
2023/07/14 05:18:46;;;;;;;10.70;9.00;;;;;;;20.59;100.00;99135.16;106431;1254;59632;-83
2023/07/14 05:21:14;;;;;;;10.70;9.50;;;;;;;20.62;100.00;99133.77;106552;1254;71767;-84
2023/07/14 05:23:41;;;;;;;11.10;10.10;;;;;;;20.63;100.00;99142.64;108165;1253;68746;-82
2023/07/14 05:26:09;;;;;;;10.50;9.40;;;;;;;20.62;100.00;99146.02;109484;1254;70275;-84
2023/07/14 05:28:36;;;;;;;11.60;9.70;;;;;;;20.60;100.00;99152.52;107288;1257;60476;-83
2023/07/14 05:31:04;;;;;;;10.40;9.10;;;;;;;20.53;100.00;99160.59;106642;1252;60310;-82
2023/07/14 05:33:32;;;;;;;10.10;9.20;;;;;;;20.42;100.00;99164.00;107333;1253;73266;-84
2023/07/14 05:36:00;;;;;;;15.50;9.70;;;;;;;20.29;100.00;99167.89;107456;1254;68842;-80
2023/07/14 05:38:29;;;;;;;10.90;9.10;;;;;;;20.14;100.00;99163.88;107495;1252;73526;-81
2023/07/14 05:40:57;;;;;;;13.90;9.70;;;;;;;20.04;100.00;99163.35;108028;1254;61651;-74
2023/07/14 05:43:26;;;;;;;10.80;9.40;;;;;;;19.99;100.00;99168.91;105991;1256;59588;-74
2023/07/14 05:45:53;;;;;;;11.80;9.50;;;;;;;19.93;100.00;99169.51;105902;1258;72857;-76
2023/07/14 05:48:21;;;;;;;13.70;10.20;;;;;;;19.87;100.00;99171.80;106291;1254;70296;-75
2023/07/14 05:50:49;;;;;;;10.50;9.50;;;;;;;19.87;100.00;99181.38;106535;1257;70387;-74
2023/07/14 05:53:17;;;;;;;11.60;9.90;;;;;;;19.89;100.00;99186.27;107614;1252;60462;-75
2023/07/14 05:55:45;;;;;;;12.10;9.50;;;;;;;19.91;100.00;99192.39;109164;1253;58864;-77
2023/07/14 05:58:13;;;;;;;13.60;9.50;;;;;;;19.94;100.00;99196.39;107874;1254;71716;-75
2023/07/14 06:00:42;;;;;;;10.60;9.40;;;;;;;19.96;100.00;99193.13;106364;1252;69131;-76
2023/07/14 06:03:12;;;;;;;11.90;9.70;;;;;;;19.98;100.00;99191.53;107148;1253;71508;-76
2023/07/14 06:05:40;;;;;;;11.50;10.30;;;;;;;19.98;100.00;99189.45;106877;1254;61976;-79
2023/07/14 06:08:08;;;;;;;14.50;9.70;;;;;;;20.00;100.00;99191.73;106755;1254;60010;-74
2023/07/14 06:10:35;;;;;;;11.30;10.20;;;;;;;20.03;100.00;99194.11;106469;1251;71924;-77
2023/07/14 06:13:03;;;;;;;12.10;10.10;;;;;;;20.05;100.00;99196.41;106787;1258;68827;-75
2023/07/14 06:15:30;;;;;;;11.00;9.60;;;;;;;20.07;100.00;99201.07;106164;1260;72635;-79
2023/07/14 06:17:58;;;;;;;11.20;10.10;;;;;;;20.12;100.00;99203.27;106755;1255;59509;-76
2023/07/14 06:20:26;;;;;;;11.50;10.40;;;;;;;20.19;100.00;99202.80;106505;1253;60082;-78
2023/07/14 06:22:58;;;;;;;11.40;10.30;;;;;;;20.28;100.00;99207.13;109147;1253;73158;-77
2023/07/14 06:25:25;;;;;;;14.20;10.90;;;;;;;20.36;100.00;99209.55;109499;1253;69016;-79
2023/07/14 06:27:53;;;;;;;10.80;9.80;;;;;;;20.42;100.00;99206.95;108882;1254;71421;-77
2023/07/14 06:30:23;;;;;;;11.00;9.40;;;;;;;20.49;100.00;99205.27;106526;1254;60551;-78
2023/07/14 06:32:51;;;;;;;16.50;11.70;;;;;;;20.57;100.00;99198.64;106491;1256;60435;-76
2023/07/14 06:35:22;;;;;;;13.60;9.60;;;;;;;20.63;100.00;99196.60;106334;1254;71986;-78
2023/07/14 06:37:49;;;;;;;12.10;11.00;;;;;;;20.68;100.00;99194.02;108044;1252;72975;-77
2023/07/14 06:40:17;;;;;;;11.30;10.20;;;;;;;20.75;100.00;99191.59;109393;1253;71080;-77
2023/07/14 06:42:44;;;;;;;12.90;11.70;;;;;;;20.80;100.00;99189.30;109457;1252;58780;-77
2023/07/14 06:45:12;;;;;;;11.70;9.60;;;;;;;20.81;100.00;99199.50;109314;1253;58793;-77
2023/07/14 06:47:40;;;;;;;12.10;9.80;;;;;;;20.88;100.00;99205.23;109452;1252;72597;-77
2023/07/14 06:50:07;;;;;;;11.40;10.40;;;;;;;20.95;100.00;99210.98;109415;1252;68886;-77
2023/07/14 06:52:37;;;;;;;10.90;9.80;;;;;;;20.96;100.00;99214.18;109157;1252;70152;-78
2023/07/14 06:55:06;;;;;;;10.60;9.50;;;;;;;21.00;100.00;99221.16;108858;1253;60494;-78
2023/07/14 06:57:33;;;;;;;10.60;9.60;;;;;;;21.04;100.00;99222.39;109226;1252;58736;-80
2023/07/14 07:00:01;;;;;;;11.50;9.60;;;;;;;21.09;100.00;99225.10;109349;1252;72638;-79
2023/07/14 07:02:29;;;;;;;12.00;10.70;;;;;;;21.10;100.00;99232.09;109349;1252;68889;-78
2023/07/14 07:04:57;;;;;;;11.30;9.20;;;;;;;21.16;100.00;99231.16;109230;1252;71357;-78
2023/07/14 07:07:24;;;;;;;11.20;9.90;;;;;;;21.22;100.00;99228.89;109413;1252;58791;-78
2023/07/14 07:09:55;;;;;;;10.60;9.50;;;;;;;21.23;100.00;99236.52;109461;1252;58772;-77
2023/07/14 07:12:26;;;;;;;16.10;11.20;;;;;;;21.26;100.00;99244.45;109453;1252;71850;-76
2023/07/14 07:14:53;;;;;;;16.20;10.50;;;;;;;21.31;100.00;99254.19;109434;1253;68715;-78
2023/07/14 07:17:21;;;;;;;20.10;11.40;;;;;;;21.34;100.00;99263.64;109402;1253;71277;-78
2023/07/14 07:19:49;;;;;;;13.50;9.80;;;;;;;21.38;100.00;99265.20;109312;1252;60729;-76
2023/07/14 07:22:16;;;;;;;11.20;9.80;;;;;;;21.43;100.00;99266.30;109270;1253;58747;-77
2023/07/14 07:24:44;;;;;;;10.60;9.40;;;;;;;21.45;100.00;99269.15;108750;1253;72344;-76
2023/07/14 07:27:11;;;;;;;14.50;9.60;;;;;;;21.40;100.00;99265.05;109519;1252;70628;-76
2023/07/14 07:29:41;;;;;;;9.90;8.90;;;;;;;21.42;100.00;99268.33;109479;1252;71186;-75
2023/07/14 07:32:09;;;;;;;12.20;9.20;;;;;;;21.50;100.00;99269.38;109074;1257;60604;-76
2023/07/14 07:34:37;;;;;;;9.70;8.80;;;;;;;21.51;100.00;99271.88;109113;1253;61122;-76
2023/07/14 07:37:05;;;;;;;9.60;8.70;;;;;;;21.58;100.00;99276.13;107206;1259;72592;-77
2023/07/14 07:39:32;;;;;;;9.00;8.20;;;;;;;21.64;100.00;99281.81;106209;1259;68932;-76
2023/07/14 07:42:01;;;;;;;9.80;8.90;;;;;;;21.65;100.00;99287.33;106116;1253;72647;-77
2023/07/14 07:44:28;;;;;;;9.60;8.10;;;;;;;21.73;100.00;99294.78;105963;1259;60580;-77
2023/07/14 07:46:58;;;;;;;10.30;9.20;;;;;;;21.76;100.00;99301.85;106339;1253;60283;-77
2023/07/14 07:49:26;;;;;;;11.80;8.90;;;;;;;21.76;100.00;99304.72;105987;1256;72706;-77
2023/07/14 07:51:53;;;;;;;9.70;8.70;;;;;;;21.79;100.00;99308.48;105941;1254;69234;-76
2023/07/14 07:54:21;;;;;;;10.70;9.70;;;;;;;21.83;100.00;99316.84;106996;1256;71116;-78
2023/07/14 07:56:49;;;;;;;9.80;8.70;;;;;;;21.83;100.00;99327.19;108042;1253;60392;-74
2023/07/14 07:59:16;;;;;;;11.50;9.00;;;;;;;21.86;100.00;99335.43;106880;1259;60335;-75
2023/07/14 08:01:45;;;;;;;9.80;8.20;;;;;;;21.84;100.00;99336.55;105825;1254;72654;-76
2023/07/14 08:04:16;;;;;;;11.00;7.90;;;;;;;21.80;100.00;99332.02;106026;1259;68726;-76
2023/07/14 08:06:44;;;;;;;10.80;9.30;;;;;;;21.78;100.00;99323.30;105786;1257;71456;-77
2023/07/14 08:09:12;;;;;;;12.40;9.40;;;;;;;21.85;100.00;99325.31;106196;1254;61893;-78
2023/07/14 08:11:40;;;;;;;10.70;8.70;;;;;;;21.97;100.00;99328.98;105968;1252;60575;-78
2023/07/14 08:14:17;;;;;;;10.80;8.20;;;;;;;22.10;100.00;99339.13;105776;1255;72646;-79
2023/07/14 08:16:45;;;;;;;10.10;8.60;;;;;;;22.25;100.00;99337.20;105936;1257;68986;-78
2023/07/14 08:19:15;;;;;;;9.90;7.70;;;;;;;22.41;100.00;99330.11;105862;1259;72813;-76
2023/07/14 08:21:43;;;;;;;13.20;7.20;;;;;;;22.55;100.00;99325.20;105920;1255;60501;-77
2023/07/14 08:24:11;;;;;;;9.90;7.30;;;;;;;22.63;100.00;99323.27;106661;1253;60433;-77
2023/07/14 08:26:39;;;;;;;7.90;7.00;;;;;;;22.72;100.00;99317.17;107141;1254;74111;-77
2023/07/14 08:29:07;;;;;;;8.60;6.80;;;;;;;22.88;100.00;99321.95;105968;1259;68737;-76
2023/07/14 08:31:34;;;;;;;10.70;7.70;;;;;;;22.96;100.00;99319.14;105918;1254;71511;-80
2023/07/14 08:34:04;;;;;;;8.10;7.30;;;;;;;23.04;100.00;99318.13;105897;1254;60521;-76
2023/07/14 08:36:31;;;;;;;9.00;7.10;;;;;;;23.19;100.00;99316.52;105995;1251;60482;-76
2023/07/14 08:38:59;;;;;;;7.70;6.30;;;;;;;23.34;100.00;99316.55;105879;1252;74157;-76
2023/07/14 08:41:33;;;;;;;6.90;6.00;;;;;;;23.54;98.75;99317.67;105991;1259;70545;-76
2023/07/14 08:44:17;;;;;;;7.50;6.70;;;;;;;23.68;96.94;99319.81;105662;1259;72805;-76
2023/07/14 08:47:13;;;;;;;9.60;6.70;;;;;;;23.81;96.47;99323.18;106921;1254;60546;-73
2023/07/14 08:49:50;;;;;;;7.10;6.40;;;;;;;24.01;96.92;99325.32;106556;1252;60336;-76
2023/07/14 08:52:33;;;;;;;7.80;6.50;;;;;;;24.25;97.05;99328.74;106954;1259;72429;-77
2023/07/14 08:55:11;;;;;;;9.60;6.80;;;;;;;24.44;95.09;99336.33;108064;1253;70225;-78
2023/07/14 08:57:46;;;;;;;6.70;6.00;;;;;;;24.55;94.51;99337.89;107887;1254;71526;-78
2023/07/14 09:00:17;;;;;;;8.70;5.70;;;;;;;24.68;94.37;99343.77;106382;1254;60543;-79
2023/07/14 09:03:03;;;;;;;6.60;6.00;;;;;;;24.79;93.62;99345.98;106161;1256;60424;-75
2023/07/14 09:05:31;;;;;;;7.00;5.80;;;;;;;24.87;92.84;99342.63;106124;1253;72667;-75
2023/07/14 09:07:59;;;;;;;7.40;6.00;;;;;;;24.97;93.30;99341.86;106014;1256;69131;-76
2023/07/14 09:10:53;;;;;;;7.30;5.60;;;;;;;25.01;92.25;99344.15;105997;1256;72356;-74
2023/07/14 09:13:44;;;;;;;7.60;6.50;;;;;;;25.01;91.97;99340.82;105996;1251;60519;-76
2023/07/14 09:16:12;;;;;;;8.60;6.40;;;;;;;25.12;95.24;99336.30;105897;1252;60444;-76
2023/07/14 09:19:00;;;;;;;9.20;5.50;;;;;;;25.33;93.43;99330.58;105796;1253;72980;-76
2023/07/14 09:21:27;;;;;;;6.50;5.90;;;;;;;25.51;90.18;99329.44;106007;1256;70387;-77
2023/07/14 09:24:06;;;;;;;10.50;5.70;;;;;;;25.66;90.21;99325.64;106810;1256;71668;-76
2023/07/14 09:26:40;;;;;;;6.80;6.10;;;;;;;25.92;92.83;99316.90;107468;1257;60536;-78
2023/07/14 09:29:17;;;;;;;7.20;5.80;;;;;;;26.31;91.24;99312.86;107445;1254;60524;-76
2023/07/14 09:31:55;;;;;;;5.60;5.10;;;;;;;26.75;87.69;99308.64;105931;1257;73862;-80
2023/07/14 09:34:28;;;;;;;5.50;4.70;;;;;;;27.10;85.93;99310.91;105988;1253;70458;-76
2023/07/14 09:36:56;;;;;;;5.30;4.90;;;;;;;27.45;84.66;99313.14;105944;1259;71782;-77
2023/07/14 09:39:30;;;;;;;5.40;4.90;;;;;;;27.82;85.31;99312.61;105888;1257;60470;-80
2023/07/14 09:41:58;;;;;;;7.10;5.10;;;;;;;28.20;82.63;99314.71;105979;1255;60367;-75
2023/07/14 09:44:28;;;;;;;5.60;5.00;;;;;;;28.55;80.53;99317.98;105905;1254;72634;-74
2023/07/14 09:46:56;;;;;;;5.90;5.30;;;;;;;28.85;79.21;99319.29;105979;1254;69313;-75
2023/07/14 09:49:30;;;;;;;8.50;5.00;;;;;;;29.15;77.45;99320.39;105984;1254;72414;-75
2023/07/14 09:52:25;;;;;;;6.10;5.20;;;;;;;29.41;73.94;99321.66;106004;1254;60540;-72
2023/07/14 09:54:55;;;;;;;5.40;4.90;;;;;;;29.66;78.00;99317.77;106659;1254;60443;-75
2023/07/14 09:57:27;;;;;;;6.00;5.20;;;;;;;29.96;78.83;99319.89;107551;1253;72834;-77
2023/07/14 10:00:27;;;;;;;6.00;5.00;;;;;;;30.31;76.67;99318.68;107314;1258;68712;-80
2023/07/14 10:03:16;;;;;;;6.10;4.50;;;;;;;30.62;73.32;99319.16;107017;1257;71725;-78
2023/07/14 10:06:02;;;;;;;4.90;4.20;;;;;;;30.91;73.58;99324.20;106440;1255;60562;-76
2023/07/14 10:08:35;;;;;;;5.30;4.20;;;;;;;31.11;71.45;99322.08;106355;1253;60367;-76
2023/07/14 10:11:25;;;;;;;5.80;4.40;;;;;;;31.32;74.45;99317.61;106244;1253;72602;-73
2023/07/14 10:13:59;;;;;;;5.30;4.30;;;;;;;31.61;72.38;99317.25;106163;1254;70527;-75
2023/07/14 10:16:28;;;;;;;5.20;4.60;;;;;;;31.92;71.02;99318.20;106079;1256;72689;-76
2023/07/14 10:18:57;;;;;;;6.70;4.70;;;;;;;32.20;68.82;99316.56;106018;1254;60442;-75
2023/07/14 10:21:30;;;;;;;4.80;4.40;;;;;;;32.36;65.84;99312.33;106016;1254;60552;-77
2023/07/14 10:24:05;;;;;;;6.30;4.60;;;;;;;32.53;68.14;99314.53;106157;1257;73921;-73
2023/07/14 10:26:39;;;;;;;5.00;4.10;;;;;;;32.68;67.10;99317.41;106971;1254;69038;-75
2023/07/14 10:29:14;;;;;;;4.60;4.20;;;;;;;32.80;64.56;99318.30;107208;1253;71286;-76
2023/07/14 10:31:50;;;;;;;7.00;3.90;;;;;;;32.85;65.38;99320.81;107093;1256;60469;-78
2023/07/14 10:34:43;;;;;;;5.00;4.50;;;;;;;32.94;67.33;99327.16;106064;1257;60487;-76
2023/07/14 10:37:17;;;;;;;;;;;;;;;33.15;64.64;99326.98;105892;1254;72836;-77
2023/07/14 10:39:47;;;;;;;4.90;4.30;;;;;;;33.30;66.55;99323.73;106137;1254;70411;-75
2023/07/14 10:42:18;;;;;;;6.90;4.20;;;;;;;33.54;66.18;99322.88;106064;1254;72932;-76
2023/07/14 10:44:45;;;;;;;5.90;4.30;;;;;;;33.78;66.37;99329.41;106101;1256;60366;-74
2023/07/14 10:47:21;;;;;;;4.70;4.30;;;;;;;34.08;64.63;99317.49;105619;1256;60452;-75
2023/07/14 10:49:56;;;;;;;6.50;4.20;;;;;;;34.24;62.73;99322.90;105998;1254;63759;-78
2023/07/14 10:52:27;;;;;;;4.60;4.10;;;;;;;34.37;63.78;99325.91;105953;1254;60507;-77
2023/07/14 10:55:23;;;;;;;6.60;3.90;;;;;;;34.56;63.17;99323.98;105970;1254;63031;-74
2023/07/14 10:57:57;;;;;;;4.30;3.90;;;;;;;34.85;60.13;99320.55;106308;1254;60478;-79
2023/07/14 11:00:29;;;;;;;4.30;3.90;;;;;;;35.18;59.78;99323.41;107705;1252;60293;-79
2023/07/14 11:02:59;;;;;;;;;;;;;;;35.54;60.74;99326.43;107013;1253;63876;-74
2023/07/14 11:05:27;;;;;;;7.30;3.80;;;;;;;35.89;60.22;99326.52;106022;1258;60470;-75
2023/07/14 11:07:55;;;;;;;6.20;3.60;;;;;;;36.30;59.04;99326.70;105823;1256;63729;-77
2023/07/14 11:10:32;;;;;;;5.20;3.40;;;;;;;36.75;56.53;99331.46;105850;1258;60527;-77
2023/07/14 11:13:34;;;;;;;5.50;3.80;;;;;;;36.99;59.29;99335.11;106461;1254;60985;-75
2023/07/14 11:16:11;;;;;;;4.90;3.60;;;;;;;36.87;59.68;99337.04;105653;1254;65241;-76
2023/07/14 11:18:51;;;;;;;3.50;3.20;;;;;;;36.45;59.58;99339.08;105959;1253;61399;-75
2023/07/14 11:21:27;;;;;;;3.90;3.50;;;;;;;35.76;56.72;99334.16;105939;1254;63751;-76
2023/07/14 11:24:17;;;;;;;4.80;4.30;;;;;;;34.92;53.77;99340.74;105756;1257;60539;-77
2023/07/14 11:27:14;;;;;;;6.30;4.40;;;;;;;33.95;55.42;99347.26;106481;1254;60383;-75
2023/07/14 11:30:07;;;;;;;4.00;3.60;;;;;;;32.96;52.59;99352.14;108074;1253;74099;-75
2023/07/14 11:32:49;;;;;;;3.80;3.30;;;;;;;32.27;47.76;99348.70;107794;1255;68725;-76
2023/07/14 11:35:25;;;;;;;5.70;4.00;;;;;;;31.72;47.75;99348.23;105963;1257;72990;-75